Time;durP1;ratioP1;P1;durP2;ratioP2;P2;SDS_P1;SDS_P2;PMS_P1;PMS_P2;Temp;Humidity;BMP_temperature;BMP_pressure;BME280_temperature;BME280_humidity;BME280_pressure;Samples;Min_cycle;Max_cycle;Signal;HPM_P1;HPM_P2
2022/01/04 00:00:08;;;;;;;2.10;0.70;;;11.30;99.90;;;;;;5032961;28;20026;-78
2022/01/04 00:02:34;;;;;;;0.90;0.63;;;11.20;99.90;;;;;;5018598;28;20019;-77
2022/01/04 00:04:59;;;;;;;0.90;0.57;;;11.20;99.90;;;;;;5018968;28;20022;-77
2022/01/04 00:07:25;;;;;;;1.95;0.80;;;11.20;99.90;;;;;;5017939;28;20367;-77
2022/01/04 00:09:52;;;;;;;1.75;0.73;;;11.20;99.90;;;;;;5017502;28;20038;-77
2022/01/04 00:15:04;;;;;;;1.65;1.05;;;11.30;99.90;;;;;;5034562;28;20110;-77
2022/01/04 00:17:30;;;;;;;1.42;0.70;;;11.30;99.90;;;;;;5031430;28;20052;-77
2022/01/04 00:19:55;;;;;;;3.50;0.77;;;11.30;99.90;;;;;;5037812;28;20117;-77
2022/01/04 00:22:21;;;;;;;1.88;0.70;;;11.30;99.90;;;;;;5017489;28;20021;-77
2022/01/04 00:24:47;;;;;;;1.05;0.75;;;11.20;99.90;;;;;;5017607;28;20026;-77
2022/01/04 00:27:12;;;;;;;2.65;0.70;;;11.20;99.90;;;;;;5016756;28;20091;-77
2022/01/04 00:29:38;;;;;;;0.90;0.70;;;11.20;99.90;;;;;;5032281;28;20482;-78
2022/01/04 00:32:04;;;;;;;1.92;0.68;;;11.10;99.90;;;;;;5016720;28;20022;-77
2022/01/04 00:34:30;;;;;;;0.60;0.60;;;11.10;99.90;;;;;;5016316;28;20030;-77
2022/01/04 00:36:55;;;;;;;1.33;0.70;;;11.20;99.90;;;;;;5016229;28;20125;-77
2022/01/04 00:39:21;;;;;;;1.98;1.10;;;11.10;99.90;;;;;;5032167;28;20022;-77
2022/01/04 00:41:47;;;;;;;0.70;0.70;;;11.20;99.90;;;;;;5031337;28;20037;-77
2022/01/04 00:44:12;;;;;;;3.13;0.90;;;11.20;99.90;;;;;;5033468;28;20061;-78
2022/01/04 00:46:38;;;;;;;1.33;0.60;;;11.10;99.90;;;;;;5031620;28;20026;-77
2022/01/04 00:49:10;;;;;;;0.98;0.68;;;11.10;99.90;;;;;;5016799;28;20022;-77
2022/01/04 00:51:37;;;;;;;1.52;0.77;;;11.10;99.90;;;;;;5015639;28;20397;-76
2022/01/04 00:54:03;;;;;;;1.75;0.47;;;11.20;99.90;;;;;;5033596;28;20026;-78
2022/01/04 00:56:29;;;;;;;3.20;0.77;;;11.30;99.90;;;;;;5016260;28;20485;-78
2022/01/04 00:58:54;;;;;;;1.05;0.77;;;11.20;99.90;;;;;;5030953;28;20132;-78
2022/01/04 01:01:20;;;;;;;1.45;0.90;;;11.00;99.90;;;;;;5019150;28;20025;-77
2022/01/04 01:03:46;;;;;;;2.00;0.68;;;11.00;99.90;;;;;;5019562;28;20093;-78
2022/01/04 01:06:11;;;;;;;1.10;0.60;;;11.00;99.90;;;;;;5017223;28;20054;-78
2022/01/04 01:08:37;;;;;;;0.85;0.60;;;10.90;99.90;;;;;;5019438;28;20022;-77
2022/01/04 01:11:05;;;;;;;1.38;0.77;;;10.90;99.90;;;;;;5015838;28;20026;-77
2022/01/04 01:13:30;;;;;;;1.58;0.90;;;11.00;99.90;;;;;;5015274;28;20096;-77
2022/01/04 01:15:56;;;;;;;0.65;0.50;;;10.90;99.90;;;;;;5015217;28;20083;-76
2022/01/04 01:18:21;;;;;;;1.05;0.68;;;10.80;99.90;;;;;;5015995;28;20030;-77
2022/01/04 01:20:49;;;;;;;1.85;0.80;;;10.90;99.90;;;;;;5029851;28;20045;-76
2022/01/04 01:23:15;;;;;;;1.88;0.63;;;10.90;99.90;;;;;;5014625;28;20033;-77
2022/01/04 01:25:40;;;;;;;1.63;0.75;;;10.90;99.90;;;;;;5030495;28;20084;-78
2022/01/04 01:28:06;;;;;;;1.10;0.80;;;10.90;99.90;;;;;;5015630;28;20425;-76
2022/01/04 01:30:35;;;;;;;0.95;0.73;;;10.80;99.90;;;;;;5015512;28;20429;-77
2022/01/04 01:33:01;;;;;;;2.13;0.98;;;10.80;99.90;;;;;;5030557;28;20029;-77
2022/01/04 01:35:26;;;;;;;0.82;0.60;;;10.70;99.90;;;;;;5030607;28;20430;-77
2022/01/04 01:37:52;;;;;;;0.95;0.80;;;10.70;99.90;;;;;;5015260;28;20467;-77
2022/01/04 01:40:17;;;;;;;1.20;0.73;;;10.70;99.90;;;;;;5015003;28;20070;-77
2022/01/04 01:42:43;;;;;;;0.90;0.60;;;10.70;99.90;;;;;;5014920;28;20029;-77
2022/01/04 01:45:10;;;;;;;1.83;1.02;;;10.70;99.90;;;;;;5015256;28;20014;-76
2022/01/04 01:47:38;;;;;;;0.95;0.60;;;10.60;99.90;;;;;;5015940;28;20045;-76
2022/01/04 01:50:05;;;;;;;1.92;1.08;;;10.60;99.90;;;;;;5015841;28;20026;-78
2022/01/04 01:52:31;;;;;;;1.42;0.70;;;10.60;99.90;;;;;;5030730;28;20029;-77
2022/01/04 01:54:57;;;;;;;0.70;0.70;;;10.50;99.90;;;;;;5015397;28;20493;-77
2022/01/04 01:57:24;;;;;;;1.25;0.90;;;10.50;99.90;;;;;;5015464;28;20453;-76
2022/01/04 01:59:50;;;;;;;1.77;0.70;;;10.50;99.90;;;;;;5021349;28;20026;-76
2022/01/04 02:02:15;;;;;;;2.63;0.90;;;10.50;99.90;;;;;;5021923;28;20092;-76
2022/01/04 02:04:42;;;;;;;1.40;0.90;;;10.50;99.90;;;;;;5024743;28;20089;-77
2022/01/04 02:07:08;;;;;;;2.42;1.02;;;10.50;99.90;;;;;;5019751;28;20493;-77
2022/01/04 02:09:37;;;;;;;1.30;1.00;;;10.40;99.90;;;;;;5032166;28;20033;-77
2022/01/04 02:12:03;;;;;;;1.20;1.10;;;10.40;99.90;;;;;;5018013;28;20024;-78
2022/01/04 02:14:29;;;;;;;1.85;1.00;;;10.40;99.90;;;;;;5015630;28;20094;-76
2022/01/04 02:16:54;;;;;;;1.30;0.73;;;10.40;99.90;;;;;;5030933;28;20046;-76
2022/01/04 02:19:21;;;;;;;2.33;1.20;;;10.40;99.90;;;;;;5018514;28;20014;-76
2022/01/04 02:21:46;;;;;;;2.65;1.10;;;10.50;99.90;;;;;;5018401;28;20049;-76
2022/01/04 02:24:12;;;;;;;1.67;0.90;;;10.50;99.90;;;;;;5015610;28;20030;-77
2022/01/04 02:26:40;;;;;;;1.58;1.00;;;10.50;99.90;;;;;;5032463;28;20501;-76
2022/01/04 02:29:07;;;;;;;1.52;1.02;;;10.50;99.90;;;;;;5015897;28;20104;-77
2022/01/04 02:31:34;;;;;;;1.00;0.90;;;10.50;99.90;;;;;;5030381;28;20085;-76
2022/01/04 02:33:59;;;;;;;2.20;1.10;;;10.50;99.90;;;;;;5032696;28;20038;-77
2022/01/04 02:36:25;;;;;;;0.75;0.75;;;10.50;99.90;;;;;;5024303;28;20033;-77
2022/01/04 02:38:52;;;;;;;1.83;0.90;;;10.50;99.90;;;;;;5021376;28;20061;-76
2022/01/04 02:41:17;;;;;;;1.75;1.02;;;10.50;99.90;;;;;;5038954;23;20096;-73
2022/01/04 02:43:43;;;;;;;0.98;0.88;;;10.40;99.90;;;;;;5012156;28;20022;-73
2022/01/04 02:46:09;;;;;;;1.23;0.85;;;10.40;99.90;;;;;;5012900;28;20044;-73
2022/01/04 02:48:42;;;;;;;1.25;1.15;;;10.50;99.90;;;;;;5012970;28;20439;-73
2022/01/04 02:51:08;;;;;;;1.88;1.08;;;10.50;99.90;;;;;;5011669;28;20018;-73
2022/01/04 02:53:34;;;;;;;3.08;1.50;;;10.60;99.90;;;;;;5012776;28;20026;-73
2022/01/04 02:55:59;;;;;;;1.10;1.00;;;10.70;99.90;;;;;;5027914;28;20025;-73
2022/01/04 02:58:25;;;;;;;2.25;1.00;;;10.60;99.90;;;;;;5027631;28;20037;-72
2022/01/04 03:00:50;;;;;;;3.35;1.73;;;10.60;99.90;;;;;;5017883;28;20018;-72
2022/01/04 03:03:16;;;;;;;3.35;1.40;;;10.60;99.90;;;;;;5017980;28;20029;-73
2022/01/04 03:05:41;;;;;;;1.52;1.20;;;10.60;99.90;;;;;;5012751;28;20022;-73
2022/01/04 03:08:07;;;;;;;1.30;1.17;;;10.60;99.90;;;;;;5012767;28;20053;-74
2022/01/04 03:10:33;;;;;;;1.33;1.00;;;10.70;99.90;;;;;;5012465;28;20064;-74
2022/01/04 03:12:58;;;;;;;1.58;1.05;;;10.60;99.90;;;;;;5012565;28;20493;-74
2022/01/04 03:15:24;;;;;;;2.17;1.35;;;10.60;99.90;;;;;;5012578;28;20036;-74
2022/01/04 03:17:49;;;;;;;4.32;1.13;;;10.60;99.90;;;;;;5012499;28;20030;-72
2022/01/04 03:20:15;;;;;;;1.40;1.08;;;10.60;99.90;;;;;;5012347;28;20101;-73
2022/01/04 03:22:40;;;;;;;1.67;1.15;;;10.70;99.90;;;;;;5012651;28;20026;-73
2022/01/04 03:25:07;;;;;;;1.70;1.35;;;10.70;99.90;;;;;;5012488;28;20038;-72
2022/01/04 03:27:32;;;;;;;2.28;1.30;;;10.60;99.90;;;;;;5012589;28;20026;-73
2022/01/04 03:29:58;;;;;;;1.40;1.10;;;10.60;99.90;;;;;;5027074;28;20045;-73
2022/01/04 03:32:23;;;;;;;1.20;1.00;;;10.60;99.90;;;;;;5035914;28;20085;-72
2022/01/04 03:34:49;;;;;;;2.35;1.35;;;10.60;99.90;;;;;;5034402;28;20034;-72
2022/01/04 03:37:15;;;;;;;1.83;1.05;;;10.80;99.90;;;;;;5049864;28;20030;-73
2022/01/04 03:39:40;;;;;;;2.65;1.00;;;10.80;99.90;;;;;;5013351;28;20018;-73
2022/01/04 03:42:06;;;;;;;1.90;1.40;;;10.80;99.90;;;;;;5012511;28;20030;-73
2022/01/04 03:44:32;;;;;;;1.33;0.95;;;10.90;99.90;;;;;;5012565;28;20018;-75
2022/01/04 03:46:58;;;;;;;1.20;0.90;;;11.00;99.90;;;;;;5012447;28;20076;-72
2022/01/04 03:49:24;;;;;;;1.20;0.90;;;11.10;99.90;;;;;;5012387;28;20030;-72
2022/01/04 03:51:49;;;;;;;1.30;1.02;;;11.00;99.90;;;;;;5011703;28;20048;-72
2022/01/04 03:54:15;;;;;;;1.83;1.08;;;11.10;99.90;;;;;;5012165;28;20109;-74
2022/01/04 03:56:42;;;;;;;1.73;1.00;;;11.10;99.90;;;;;;5027030;28;20033;-74
2022/01/04 03:59:07;;;;;;;0.88;0.70;;;11.10;99.90;;;;;;5011730;28;20517;-72
2022/01/04 04:01:33;;;;;;;2.40;0.90;;;11.20;99.90;;;;;;5011898;28;20049;-74
2022/01/04 04:03:58;;;;;;;1.45;1.08;;;11.30;99.90;;;;;;5015329;28;20472;-73
2022/01/04 04:06:24;;;;;;;1.33;1.00;;;11.30;99.90;;;;;;5015558;28;20025;-73
2022/01/04 04:08:50;;;;;;;1.73;0.85;;;11.30;99.90;;;;;;5015818;28;20033;-73
2022/01/04 04:11:15;;;;;;;0.90;0.85;;;11.30;99.90;;;;;;5030846;28;20462;-74
2022/01/04 04:13:41;;;;;;;1.05;0.60;;;11.40;99.90;;;;;;5015698;28;20025;-74
2022/01/04 04:16:07;;;;;;;0.90;0.90;;;11.50;99.90;;;;;;5015750;28;20543;-73
2022/01/04 04:18:32;;;;;;;1.80;0.80;;;11.50;99.90;;;;;;5016536;28;20050;-74
2022/01/04 04:20:58;;;;;;;2.70;1.05;;;11.50;99.90;;;;;;5016281;28;20338;-74
2022/01/04 04:23:23;;;;;;;0.73;0.73;;;11.40;99.90;;;;;;5015513;28;20026;-73
2022/01/04 04:25:49;;;;;;;0.95;0.70;;;11.50;99.90;;;;;;5049762;28;20034;-73
2022/01/04 04:28:15;;;;;;;1.90;0.60;;;11.50;99.90;;;;;;5034193;28;20034;-73
2022/01/04 04:30:40;;;;;;;1.08;0.70;;;11.60;99.90;;;;;;5016899;28;20568;-73
2022/01/04 04:33:06;;;;;;;0.60;0.50;;;11.60;99.90;;;;;;5015518;28;20037;-74
2022/01/04 04:35:32;;;;;;;0.77;0.73;;;11.60;99.90;;;;;;5015822;28;20034;-75
2022/01/04 04:38:01;;;;;;;0.80;0.75;;;11.50;99.90;;;;;;5015689;28;20021;-74
2022/01/04 04:40:26;;;;;;;0.80;0.60;;;11.50;99.90;;;;;;5015029;28;20030;-76
2022/01/04 04:42:52;;;;;;;1.02;0.70;;;11.50;99.90;;;;;;5014793;28;20033;-74
2022/01/04 04:45:17;;;;;;;0.80;0.73;;;11.60;99.90;;;;;;5015296;28;20036;-73
2022/01/04 04:47:43;;;;;;;2.20;1.00;;;11.50;99.90;;;;;;5015111;28;20030;-74
2022/01/04 04:50:09;;;;;;;0.70;0.60;;;11.60;99.90;;;;;;5014967;28;20030;-73
2022/01/04 04:52:35;;;;;;;2.38;0.63;;;11.50;99.90;;;;;;5015002;28;20072;-74
2022/01/04 04:55:01;;;;;;;1.05;0.90;;;11.50;99.90;;;;;;5015192;28;20034;-74
2022/01/04 04:57:27;;;;;;;1.10;0.80;;;11.50;99.90;;;;;;5015386;28;20048;-74
2022/01/04 04:59:52;;;;;;;1.77;0.82;;;11.40;99.90;;;;;;5015192;28;20108;-74
2022/01/04 05:02:18;;;;;;;0.93;0.47;;;11.40;99.90;;;;;;5016555;28;20018;-74
2022/01/04 05:04:44;;;;;;;1.15;0.77;;;11.50;99.90;;;;;;5025082;28;20026;-74
2022/01/04 05:07:09;;;;;;;1.60;0.80;;;11.40;99.90;;;;;;5016457;28;20434;-73
2022/01/04 05:09:35;;;;;;;1.35;0.85;;;11.50;99.90;;;;;;5015168;28;20433;-73
2022/01/04 05:12:01;;;;;;;1.30;0.90;;;11.50;99.90;;;;;;5014604;28;20040;-74
2022/01/04 05:14:27;;;;;;;0.77;0.73;;;11.40;99.90;;;;;;5014006;28;20030;-74
2022/01/04 05:16:52;;;;;;;0.95;0.65;;;11.40;99.90;;;;;;5014426;28;20030;-74
2022/01/04 05:19:18;;;;;;;1.40;0.68;;;11.50;99.90;;;;;;5014756;28;20504;-73
2022/01/04 05:21:43;;;;;;;1.25;1.00;;;11.50;99.90;;;;;;5014273;28;20022;-74
2022/01/04 05:24:09;;;;;;;0.93;0.60;;;11.70;99.90;;;;;;5014523;28;20446;-74
2022/01/04 05:26:35;;;;;;;0.75;0.70;;;11.60;99.90;;;;;;5014487;28;20034;-74
2022/01/04 05:29:01;;;;;;;1.73;0.82;;;11.50;99.90;;;;;;5013354;28;20022;-74
2022/01/04 05:31:27;;;;;;;0.93;0.88;;;11.50;99.90;;;;;;5014284;28;20029;-73
2022/01/04 05:33:53;;;;;;;0.82;0.77;;;11.40;99.90;;;;;;5014645;28;20022;-74
2022/01/04 05:36:18;;;;;;;2.78;1.25;;;11.40;99.90;;;;;;5014165;28;20492;-74
2022/01/04 05:38:44;;;;;;;1.23;0.90;;;11.30;99.90;;;;;;5014523;28;20174;-75
2022/01/04 05:41:10;;;;;;;1.83;1.02;;;11.30;99.90;;;;;;5013025;28;20061;-74
2022/01/04 05:43:35;;;;;;;4.03;1.00;;;11.20;99.90;;;;;;5014426;28;20434;-74
2022/01/04 05:46:01;;;;;;;1.95;0.95;;;11.20;99.90;;;;;;5014635;28;20499;-74
2022/01/04 05:48:27;;;;;;;1.92;1.10;;;11.20;99.90;;;;;;5013912;28;20307;-73
2022/01/04 05:50:53;;;;;;;2.58;0.70;;;11.20;99.90;;;;;;5013929;28;20444;-73
2022/01/04 05:53:18;;;;;;;1.20;1.10;;;11.20;99.90;;;;;;5014076;28;20029;-74
2022/01/04 05:55:44;;;;;;;1.17;0.93;;;11.20;99.90;;;;;;5014710;28;20057;-75
2022/01/04 05:58:09;;;;;;;0.90;0.60;;;11.20;99.90;;;;;;5015456;28;20033;-72
2022/01/04 06:00:35;;;;;;;1.88;0.60;;;11.20;99.90;;;;;;5016377;28;20022;-73
2022/01/04 06:03:01;;;;;;;3.33;0.90;;;11.20;99.90;;;;;;5014642;28;20058;-74
2022/01/04 06:05:30;;;;;;;5.70;0.85;;;11.20;99.90;;;;;;5014732;28;20050;-74
2022/01/04 06:07:56;;;;;;;1.55;0.93;;;11.20;99.90;;;;;;5015104;28;20026;-74
2022/01/04 06:10:22;;;;;;;0.93;0.88;;;11.30;99.90;;;;;;5014114;28;20084;-74
2022/01/04 06:15:15;;;;;;;1.10;1.00;;;11.20;99.90;;;;;;5026378;28;20053;-73
2022/01/04 06:17:44;;;;;;;1.38;0.90;;;11.20;99.90;;;;;;5034361;28;20073;-73
2022/01/04 06:20:15;;;;;;;4.35;3.10;;;11.20;99.90;;;;;;5034897;28;20022;-74
2022/01/04 06:22:42;;;;;;;1.90;0.95;;;11.30;99.90;;;;;;5034646;28;20026;-73
2022/01/04 06:25:10;;;;;;;1.17;0.70;;;11.20;99.90;;;;;;5014326;28;20022;-74
2022/01/04 06:27:36;;;;;;;1.88;0.90;;;11.10;99.90;;;;;;5014038;28;20029;-74
2022/01/04 06:30:03;;;;;;;1.55;0.80;;;11.20;99.90;;;;;;5013579;28;20034;-74
2022/01/04 06:32:29;;;;;;;1.15;0.82;;;11.10;99.90;;;;;;5013971;28;20064;-75
2022/01/04 06:34:54;;;;;;;0.90;0.80;;;11.10;99.90;;;;;;5013937;28;20446;-74
2022/01/04 06:37:20;;;;;;;1.35;0.93;;;11.20;99.90;;;;;;5013946;28;20026;-73
2022/01/04 06:39:46;;;;;;;0.85;0.70;;;11.20;99.90;;;;;;5013425;28;20022;-74
2022/01/04 06:42:12;;;;;;;1.45;1.35;;;11.10;99.90;;;;;;5012761;28;20057;-74
2022/01/04 06:44:38;;;;;;;0.80;0.70;;;11.20;99.90;;;;;;5013395;28;20449;-74
2022/01/04 06:47:05;;;;;;;1.15;0.80;;;11.20;99.90;;;;;;5029624;28;20030;-73
2022/01/04 06:49:31;;;;;;;0.70;0.63;;;11.20;99.90;;;;;;5036727;28;20014;-72
2022/01/04 06:51:56;;;;;;;1.00;0.88;;;11.10;99.90;;;;;;5035186;28;20022;-73
2022/01/04 06:54:22;;;;;;;0.70;0.70;;;11.10;99.90;;;;;;5035539;28;20085;-73
2022/01/04 06:56:48;;;;;;;0.90;0.60;;;11.10;99.90;;;;;;5034849;28;20072;-73
2022/01/04 06:59:14;;;;;;;0.57;0.52;;;11.10;99.90;;;;;;5021387;28;20097;-74
2022/01/04 07:01:40;;;;;;;2.22;0.90;;;11.10;99.90;;;;;;5013267;28;20057;-74
2022/01/04 07:04:06;;;;;;;1.23;0.82;;;11.20;99.90;;;;;;5028186;28;20131;-74
2022/01/04 07:06:33;;;;;;;1.13;0.80;;;11.10;99.90;;;;;;5022674;28;20853;-74
2022/01/04 07:08:58;;;;;;;1.00;0.70;;;11.10;99.90;;;;;;5017015;28;20171;-74
2022/01/04 07:11:24;;;;;;;4.03;0.73;;;11.10;99.90;;;;;;5012895;28;20086;-73
2022/01/04 07:13:49;;;;;;;1.35;0.80;;;11.10;99.90;;;;;;5013342;28;20037;-74
2022/01/04 07:16:15;;;;;;;1.58;0.93;;;11.10;99.90;;;;;;5013743;28;20026;-75
2022/01/04 07:18:41;;;;;;;2.42;0.80;;;11.10;99.90;;;;;;5012965;28;20022;-73
2022/01/04 07:21:06;;;;;;;2.55;1.00;;;11.10;99.90;;;;;;5012711;28;20068;-74
2022/01/04 07:23:33;;;;;;;0.70;0.70;;;11.10;99.90;;;;;;5012729;28;20072;-75
2022/01/04 07:25:58;;;;;;;1.40;1.00;;;11.20;99.90;;;;;;5012907;28;20080;-75
2022/01/04 07:28:24;;;;;;;0.63;0.57;;;11.10;99.90;;;;;;5013440;28;20026;-75
2022/01/04 07:30:50;;;;;;;1.40;0.80;;;11.10;99.90;;;;;;5012719;28;20485;-75
2022/01/04 07:33:17;;;;;;;1.25;0.80;;;11.10;99.90;;;;;;5012586;28;20112;-75
2022/01/04 07:35:43;;;;;;;1.73;0.65;;;11.10;99.90;;;;;;5013972;28;20021;-76
2022/01/04 07:38:10;;;;;;;2.45;0.90;;;11.10;99.90;;;;;;5016590;28;20103;-74
2022/01/04 07:40:35;;;;;;;1.23;0.70;;;11.10;99.90;;;;;;5016701;28;20042;-75
2022/01/04 07:43:01;;;;;;;2.65;0.93;;;11.10;99.90;;;;;;5016779;28;20041;-74
2022/01/04 07:45:34;;;;;;;1.65;0.90;;;11.20;99.90;;;;;;5016749;28;20208;-74
2022/01/04 07:48:00;;;;;;;1.38;1.00;;;11.10;99.90;;;;;;5016749;28;20034;-74
2022/01/04 07:50:27;;;;;;;3.08;1.48;;;11.10;99.90;;;;;;5016551;28;20481;-74
2022/01/04 07:52:53;;;;;;;1.25;1.13;;;11.10;99.90;;;;;;5016522;28;20386;-75
2022/01/04 07:55:19;;;;;;;1.40;0.80;;;11.30;99.90;;;;;;5016373;28;20065;-75
2022/01/04 07:57:45;;;;;;;1.25;0.60;;;11.30;99.90;;;;;;5016370;28;20112;-74
2022/01/04 08:00:15;;;;;;;3.55;1.85;;;11.30;99.90;;;;;;5016578;28;20076;-74
2022/01/04 08:02:42;;;;;;;1.20;0.90;;;11.60;99.90;;;;;;5019828;28;20094;-72
2022/01/04 08:05:11;;;;;;;1.48;0.90;;;11.70;99.90;;;;;;5019871;28;20022;-74
2022/01/04 08:07:37;;;;;;;2.15;0.95;;;11.90;99.90;;;;;;5016592;28;20026;-74
2022/01/04 08:10:04;;;;;;;0.80;0.70;;;11.90;99.90;;;;;;5015804;28;20022;-73
2022/01/04 08:12:30;;;;;;;1.40;0.63;;;12.00;99.90;;;;;;5015690;28;20046;-74
2022/01/04 08:14:56;;;;;;;0.50;0.43;;;12.10;99.90;;;;;;5015779;28;20103;-72
2022/01/04 08:17:22;;;;;;;0.90;0.60;;;12.20;99.90;;;;;;5015520;28;20559;-73
2022/01/04 08:19:47;;;;;;;2.05;0.70;;;12.30;99.90;;;;;;5029482;28;20109;-73
2022/01/04 08:22:13;;;;;;;2.42;0.82;;;12.40;99.90;;;;;;5033227;28;20050;-72
2022/01/04 08:24:38;;;;;;;1.00;0.70;;;12.40;99.90;;;;;;5016161;28;20021;-72
2022/01/04 08:27:04;;;;;;;2.83;0.55;;;12.40;99.90;;;;;;5015532;28;20040;-74
2022/01/04 08:29:31;;;;;;;2.58;0.93;;;12.50;99.90;;;;;;5015383;28;20033;-74
2022/01/04 08:31:58;;;;;;;2.42;0.90;;;12.60;99.90;;;;;;5015359;28;20026;-72
2022/01/04 08:34:24;;;;;;;0.75;0.60;;;12.60;99.90;;;;;;5015625;28;20440;-72
2022/01/04 08:36:49;;;;;;;0.95;0.63;;;12.60;99.90;;;;;;5015261;28;20026;-72
2022/01/04 08:39:15;;;;;;;1.50;0.77;;;12.50;99.90;;;;;;5013788;28;20579;-74
2022/01/04 08:41:42;;;;;;;2.13;1.58;;;12.50;99.90;;;;;;5041967;23;20049;-77
2022/01/04 08:44:08;;;;;;;2.85;0.70;;;12.50;99.90;;;;;;5044446;28;20428;-76
2022/01/04 08:46:35;;;;;;;3.10;0.75;;;12.70;99.90;;;;;;5045645;28;20032;-77
2022/01/04 08:49:07;;;;;;;1.10;0.68;;;12.60;99.90;;;;;;5040953;28;20029;-78
2022/01/04 08:51:33;;;;;;;0.68;0.50;;;12.60;99.90;;;;;;5019505;28;20080;-78
2022/01/04 08:53:59;;;;;;;1.38;0.50;;;12.70;99.90;;;;;;5019402;28;20057;-77
2022/01/04 08:56:25;;;;;;;0.85;0.63;;;12.70;99.90;;;;;;5038342;28;20075;-77
2022/01/04 08:58:50;;;;;;;2.05;0.98;;;12.70;99.90;;;;;;5020831;28;20465;-78
2022/01/04 09:01:16;;;;;;;1.70;0.85;;;12.80;99.90;;;;;;5039008;28;20080;-76
2022/01/04 09:03:41;;;;;;;1.52;0.80;;;12.70;99.90;;;;;;5037545;28;20024;-78
2022/01/04 09:06:10;;;;;;;1.25;0.90;;;12.70;99.90;;;;;;5038260;28;20022;-77
2022/01/04 09:08:36;;;;;;;3.28;1.10;;;12.80;99.90;;;;;;5023178;28;20026;-77
2022/01/04 09:11:02;;;;;;;0.90;0.50;;;12.80;99.90;;;;;;5036885;28;20025;-76
2022/01/04 09:13:34;;;;;;;2.03;0.63;;;12.90;99.90;;;;;;5037145;28;20033;-77
2022/01/04 09:18:45;;;;;;;1.10;0.60;;;13.00;99.90;;;;;;5039551;28;20515;-78
2022/01/04 09:21:24;;;;;;;0.80;0.70;;;12.90;99.90;;;;;;5040909;28;20105;-77
2022/01/04 09:23:50;;;;;;;1.63;0.57;;;12.90;99.90;;;;;;5038699;28;20027;-77
2022/01/04 09:26:17;;;;;;;1.70;0.65;;;12.90;99.90;;;;;;5036614;28;20116;-77
2022/01/04 09:28:44;;;;;;;2.70;0.80;;;12.90;99.90;;;;;;5036518;28;20025;-77
2022/01/04 09:31:11;;;;;;;1.50;0.60;;;12.90;99.90;;;;;;5035342;28;20116;-78
2022/01/04 09:33:37;;;;;;;1.55;0.60;;;13.00;99.90;;;;;;5021373;28;20028;-77
2022/01/04 09:36:04;;;;;;;0.93;0.68;;;13.00;99.90;;;;;;5018757;28;20374;-78
2022/01/04 09:38:29;;;;;;;0.55;0.50;;;12.90;99.90;;;;;;5022835;28;20396;-78
2022/01/04 09:40:56;;;;;;;0.98;0.70;;;12.90;99.90;;;;;;5018646;28;20025;-77
2022/01/04 09:43:22;;;;;;;1.63;0.70;;;13.00;99.90;;;;;;5037291;28;20032;-77
2022/01/04 09:45:49;;;;;;;1.80;0.90;;;13.00;99.90;;;;;;5036505;28;20025;-77
2022/01/04 09:48:15;;;;;;;2.47;0.75;;;13.00;99.90;;;;;;5036403;28;20100;-77
2022/01/04 09:50:42;;;;;;;0.60;0.60;;;13.00;99.90;;;;;;5038697;28;20026;-77
2022/01/04 09:53:19;;;;;;;1.38;0.82;;;13.00;99.90;;;;;;5038323;28;20021;-77
2022/01/04 09:55:49;;;;;;;2.33;1.52;;;12.90;99.90;;;;;;5036519;28;20061;-77
2022/01/04 09:58:18;;;;;;;1.95;0.70;;;12.90;99.90;;;;;;5035581;28;20081;-78
2022/01/04 10:00:43;;;;;;;2.03;0.90;;;13.00;99.90;;;;;;5018688;28;20074;-78
2022/01/04 10:03:18;;;;;;;1.10;0.80;;;13.00;99.90;;;;;;5043091;28;20071;-77
2022/01/04 10:05:45;;;;;;;2.20;0.95;;;12.90;99.90;;;;;;5041270;28;20037;-77
2022/01/04 10:08:13;;;;;;;2.08;1.15;;;13.00;99.90;;;;;;5020816;28;20128;-77
2022/01/04 10:10:40;;;;;;;1.92;1.08;;;13.00;99.90;;;;;;5026821;28;20057;-78
2022/01/04 10:13:11;;;;;;;1.35;0.70;;;13.00;99.90;;;;;;5047813;28;20060;-78
2022/01/04 10:15:41;;;;;;;;;;;13.10;99.90;;;;;;5048617;28;20079;-78
2022/01/04 10:18:13;;;;;;;1.52;1.00;;;13.10;99.90;;;;;;5039565;28;19915;-78
2022/01/04 10:20:39;;;;;;;1.65;0.85;;;13.20;99.90;;;;;;5040843;28;20073;-77
2022/01/04 10:23:21;;;;;;;1.38;0.80;;;13.20;99.90;;;;;;5039657;28;20494;-78
2022/01/04 10:25:49;;;;;;;1.63;0.70;;;13.20;99.90;;;;;;5021089;28;20080;-77
2022/01/04 10:28:28;;;;;;;1.67;0.80;;;13.10;99.90;;;;;;5038155;28;20029;-77
2022/01/04 10:30:54;;;;;;;1.63;0.90;;;13.20;99.90;;;;;;5036631;28;20033;-77
2022/01/04 10:33:21;;;;;;;1.58;1.05;;;13.30;99.90;;;;;;5021133;28;20025;-77
2022/01/04 10:35:55;;;;;;;1.85;0.82;;;13.30;99.90;;;;;;5038026;28;20119;-77
2022/01/04 10:38:22;;;;;;;2.33;0.70;;;13.30;99.90;;;;;;5020965;28;20030;-78
2022/01/04 10:41:11;;;;;;;1.70;1.02;;;13.30;99.90;;;;;;5038776;28;20140;-78
2022/01/04 10:43:45;;;;;;;1.50;0.98;;;13.30;99.90;;;;;;5036980;28;20037;-77
2022/01/04 10:46:13;;;;;;;2.65;1.10;;;13.30;99.90;;;;;;5040201;28;20032;-77
2022/01/04 10:48:42;;;;;;;1.65;0.90;;;13.40;99.90;;;;;;5049251;28;20035;-77
2022/01/04 10:51:21;;;;;;;2.60;1.20;;;13.40;99.90;;;;;;5048298;28;20028;-77
2022/01/04 10:54:06;;;;;;;1.50;0.80;;;13.40;99.90;;;;;;5043142;28;20033;-78
2022/01/04 10:56:38;;;;;;;2.25;0.75;;;13.30;99.90;;;;;;5024931;28;20025;-78
2022/01/04 10:59:09;;;;;;;1.13;1.02;;;13.40;99.90;;;;;;5044441;28;20037;-78
2022/01/04 11:01:46;;;;;;;1.63;0.60;;;13.30;99.90;;;;;;5051146;28;20029;-78
2022/01/04 11:04:18;;;;;;;2.47;1.45;;;13.30;99.90;;;;;;5053603;28;20032;-76
2022/01/04 11:06:44;;;;;;;2.47;0.93;;;13.20;99.90;;;;;;5053882;28;20072;-77
2022/01/04 11:09:11;;;;;;;2.75;1.17;;;13.30;99.90;;;;;;5053461;28;20030;-77
2022/01/04 11:11:38;;;;;;;1.10;0.80;;;13.20;99.90;;;;;;5054428;28;20032;-77
2022/01/04 11:14:04;;;;;;;1.63;0.90;;;13.20;99.90;;;;;;5030446;28;20037;-78
2022/01/04 11:16:30;;;;;;;0.98;0.85;;;13.30;99.90;;;;;;5045351;28;20624;-78
2022/01/04 11:18:58;;;;;;;1.35;1.05;;;13.30;99.90;;;;;;5043371;28;20025;-77
2022/01/04 11:21:43;;;;;;;3.58;1.00;;;13.40;99.90;;;;;;5050446;28;20040;-77
2022/01/04 11:24:16;;;;;;;2.63;1.67;;;13.50;99.90;;;;;;5054105;28;20484;-78
2022/01/04 11:26:44;;;;;;;1.65;0.70;;;13.50;99.90;;;;;;5053289;28;20049;-77
2022/01/04 11:29:10;;;;;;;1.15;0.75;;;13.40;99.90;;;;;;5056572;28;20044;-76
2022/01/04 11:31:51;;;;;;;3.15;0.98;;;13.30;99.90;;;;;;5056563;28;20033;-76
2022/01/04 11:34:48;;;;;;;1.85;0.90;;;13.30;99.90;;;;;;5055756;28;20015;-76
2022/01/04 11:37:21;;;;;;;1.35;1.05;;;13.30;99.90;;;;;;5025933;28;20030;-79
2022/01/04 11:39:47;;;;;;;1.17;0.77;;;13.30;99.90;;;;;;5041667;28;20306;-78
2022/01/04 11:42:31;;;;;;;2.80;2.10;;;13.30;99.90;;;;;;5040808;28;20044;-76
2022/01/04 11:44:58;;;;;;;5.32;1.13;;;13.20;99.90;;;;;;5039560;28;20064;-78
2022/01/04 11:47:29;;;;;;;4.68;1.10;;;13.20;99.90;;;;;;5043696;28;20037;-77
2022/01/04 11:50:17;;;;;;;1.17;1.05;;;13.10;99.90;;;;;;5040909;28;20033;-77
2022/01/04 11:53:08;;;;;;;3.65;1.13;;;13.10;99.90;;;;;;5037792;28;20041;-77
2022/01/04 11:55:37;;;;;;;1.30;1.20;;;13.10;99.90;;;;;;5008792;28;20516;-77
2022/01/04 11:58:08;;;;;;;2.95;1.45;;;13.00;99.90;;;;;;5037712;28;20083;-78
2022/01/04 12:00:37;;;;;;;1.10;0.80;;;13.00;99.90;;;;;;5038444;28;20033;-78
2022/01/04 12:03:13;;;;;;;1.52;0.90;;;13.10;99.90;;;;;;5039186;28;20428;-78
2022/01/04 12:05:57;;;;;;;1.42;1.02;;;13.10;99.90;;;;;;5022059;28;20018;-77
2022/01/04 12:08:32;;;;;;;3.45;1.55;;;13.20;99.90;;;;;;5021755;28;20029;-77
2022/01/04 12:10:58;;;;;;;2.22;1.35;;;13.10;99.90;;;;;;5019192;28;20026;-78
2022/01/04 12:13:36;;;;;;;2.92;1.77;;;13.10;99.90;;;;;;5037577;28;20014;-77
2022/01/04 12:16:06;;;;;;;2.15;1.42;;;13.10;99.90;;;;;;5018726;28;20037;-77
2022/01/04 12:18:31;;;;;;;3.13;1.27;;;13.00;99.90;;;;;;5036972;28;20030;-77
2022/01/04 12:20:59;;;;;;;3.33;1.45;;;13.00;99.90;;;;;;5037611;28;20026;-77
2022/01/04 12:23:31;;;;;;;2.13;1.45;;;13.00;99.90;;;;;;5038795;28;20052;-78
2022/01/04 12:26:06;;;;;;;1.95;1.33;;;12.90;99.90;;;;;;5041015;28;20045;-77
2022/01/04 12:28:41;;;;;;;1.92;1.10;;;12.90;99.90;;;;;;5052786;28;20017;-78
2022/01/04 12:31:13;;;;;;;2.40;1.42;;;12.80;99.90;;;;;;5052638;28;20021;-79
2022/01/04 12:33:43;;;;;;;3.22;1.48;;;12.80;99.90;;;;;;5055921;28;20021;-77
2022/01/04 12:36:09;;;;;;;2.88;1.20;;;12.70;99.90;;;;;;5037245;28;20021;-77
2022/01/04 12:38:35;;;;;;;2.63;1.40;;;12.70;99.90;;;;;;5054118;28;20073;-78
2022/01/04 12:41:02;;;;;;;5.43;1.75;;;12.70;99.90;;;;;;5030159;28;20045;-77
2022/01/04 12:43:28;;;;;;;2.95;1.40;;;12.70;99.90;;;;;;5040872;28;20026;-77
2022/01/04 12:46:01;;;;;;;3.65;1.67;;;12.70;99.90;;;;;;5045868;28;20029;-77
2022/01/04 12:49:04;;;;;;;2.58;1.67;;;12.60;99.90;;;;;;5040110;28;20570;-77
2022/01/04 12:51:32;;;;;;;5.20;1.70;;;12.60;99.90;;;;;;4959293;28;20487;-77
2022/01/04 12:54:01;;;;;;;2.72;1.58;;;12.60;99.90;;;;;;5024801;28;20034;-77
2022/01/04 12:56:29;;;;;;;2.60;1.48;;;12.60;99.90;;;;;;5042979;28;20422;-77